Time;durP1;ratioP1;P1;durP2;ratioP2;P2;SDS_P1;SDS_P2;PMS_P1;PMS_P2;Temp;Humidity;BMP_temperature;BMP_pressure;BME280_temperature;BME280_humidity;BME280_pressure;Samples;Min_cycle;Max_cycle;Signal;HPM_P1;HPM_P2
2021/08/08 00:01:44;;;;;;;0.63;0.63;;;26.20;52.40;;;;;;5026511;28;20111;-67
2021/08/08 00:04:12;;;;;;;0.65;0.65;;;26.20;52.40;;;;;;5026525;28;20053;-67
2021/08/08 00:06:40;;;;;;;0.70;0.70;;;26.20;52.40;;;;;;5026564;28;20135;-67
2021/08/08 00:09:08;;;;;;;0.70;0.70;;;26.20;52.40;;;;;;5026117;28;20457;-67
2021/08/08 00:11:35;;;;;;;0.88;0.88;;;26.20;52.40;;;;;;5026403;28;20049;-67
2021/08/08 00:14:03;;;;;;;0.60;0.60;;;26.20;52.40;;;;;;5026305;28;20569;-67
2021/08/08 00:16:30;;;;;;;0.77;0.77;;;26.20;52.40;;;;;;5026297;28;20494;-67
2021/08/08 00:18:58;;;;;;;0.77;0.70;;;26.20;52.40;;;;;;5026117;28;20510;-67
2021/08/08 00:21:25;;;;;;;0.68;0.68;;;26.20;52.40;;;;;;5025594;28;20081;-67
2021/08/08 00:23:52;;;;;;;0.60;0.60;;;26.20;52.40;;;;;;5006314;28;20092;-67
2021/08/08 00:26:20;;;;;;;0.38;0.38;;;26.20;52.50;;;;;;5006689;28;20414;-67
2021/08/08 00:28:49;;;;;;;0.63;0.63;;;26.20;52.50;;;;;;5006290;28;20339;-67
2021/08/08 00:31:20;;;;;;;0.70;0.70;;;26.20;52.50;;;;;;5022963;28;20049;-67
2021/08/08 00:33:47;;;;;;;0.80;0.80;;;26.10;52.40;;;;;;5025786;28;20060;-67
2021/08/08 00:36:14;;;;;;;0.77;0.77;;;26.10;52.40;;;;;;5025223;28;20049;-67
2021/08/08 00:38:41;;;;;;;0.80;0.80;;;26.20;52.50;;;;;;5025851;28;20054;-67
2021/08/08 00:41:08;;;;;;;0.85;0.85;;;26.10;52.50;;;;;;5025921;28;20061;-68
2021/08/08 00:43:35;;;;;;;0.60;0.60;;;26.10;52.50;;;;;;5025979;28;20132;-67
2021/08/08 00:46:02;;;;;;;0.55;0.55;;;26.10;52.50;;;;;;5025985;28;20053;-67
2021/08/08 00:48:30;;;;;;;0.63;0.63;;;26.10;52.50;;;;;;5025859;28;20045;-68
2021/08/08 00:50:58;;;;;;;0.50;0.50;;;26.10;52.50;;;;;;5026103;28;20136;-68
2021/08/08 00:53:27;;;;;;;0.70;0.70;;;26.10;52.50;;;;;;5024844;28;20144;-67
2021/08/08 00:55:54;;;;;;;0.60;0.60;;;26.10;52.50;;;;;;5025471;28;20053;-67
2021/08/08 00:58:21;;;;;;;0.60;0.60;;;26.10;52.60;;;;;;5025511;28;20057;-67
2021/08/08 01:00:51;;;;;;;0.80;0.80;;;26.10;52.60;;;;;;5025367;28;20557;-67
2021/08/08 01:03:21;;;;;;;0.63;0.63;;;26.10;52.60;;;;;;5025736;28;20080;-67
2021/08/08 01:05:56;;;;;;;;;;;26.10;52.60;;;;;;5025796;28;20053;-67
2021/08/08 01:08:29;;;;;;;0.82;0.82;;;26.10;52.60;;;;;;5025763;28;19961;-67
2021/08/08 01:10:59;;;;;;;0.80;0.80;;;26.10;52.60;;;;;;5025276;28;20058;-68
2021/08/08 01:13:27;;;;;;;0.52;0.52;;;26.10;52.60;;;;;;5025444;28;20132;-67
2021/08/08 01:15:55;;;;;;;0.70;0.70;;;26.10;52.60;;;;;;5024763;28;21009;-67
2021/08/08 01:18:22;;;;;;;0.70;0.70;;;26.10;52.60;;;;;;5025220;28;20049;-67
2021/08/08 01:20:50;;;;;;;0.70;0.70;;;26.10;52.60;;;;;;5025309;28;20057;-67
2021/08/08 01:23:18;;;;;;;0.70;0.70;;;26.10;52.60;;;;;;5009177;28;20108;-67
2021/08/08 01:25:46;;;;;;;0.60;0.60;;;26.10;52.60;;;;;;5005712;28;20136;-67
2021/08/08 01:28:13;;;;;;;1.05;0.73;;;26.10;52.60;;;;;;5005977;28;20116;-68
2021/08/08 01:30:40;;;;;;;0.60;0.60;;;26.10;52.60;;;;;;5005344;28;20168;-67
2021/08/08 01:33:10;;;;;;;0.60;0.60;;;26.10;52.60;;;;;;5006137;28;20134;-68
2021/08/08 01:35:37;;;;;;;0.70;0.70;;;26.10;52.60;;;;;;5011828;28;20057;-67
2021/08/08 01:38:06;;;;;;;0.55;0.55;;;26.10;52.60;;;;;;5025183;28;20058;-69
2021/08/08 01:40:39;;;;;;;0.60;0.60;;;26.10;52.50;;;;;;5025009;28;20053;-67
2021/08/08 01:43:09;;;;;;;0.63;0.63;;;26.20;52.60;;;;;;5025422;28;20983;-68
2021/08/08 01:45:40;;;;;;;0.80;0.80;;;26.10;52.50;;;;;;5025375;28;20056;-67
2021/08/08 01:48:11;;;;;;;0.60;0.60;;;26.20;52.60;;;;;;5024941;28;20095;-67
2021/08/08 01:50:39;;;;;;;0.50;0.50;;;26.20;52.60;;;;;;5025232;28;20060;-67
2021/08/08 01:53:09;;;;;;;0.60;0.60;;;26.20;52.60;;;;;;5025044;28;20049;-68
2021/08/08 01:55:36;;;;;;;0.60;0.60;;;26.20;52.60;;;;;;5024389;28;20141;-67
2021/08/08 01:58:05;;;;;;;0.73;0.60;;;26.10;52.50;;;;;;5025088;28;20417;-67
2021/08/08 02:00:32;;;;;;;0.68;0.68;;;26.20;52.60;;;;;;5023804;28;20077;-67
2021/08/08 02:03:00;;;;;;;0.70;0.70;;;26.10;52.50;;;;;;5025308;28;20053;-67
2021/08/08 02:05:29;;;;;;;0.63;0.63;;;26.10;52.50;;;;;;5024935;28;20132;-67
2021/08/08 02:07:56;;;;;;;0.70;0.70;;;26.10;52.60;;;;;;5024952;28;20049;-67
2021/08/08 02:10:24;;;;;;;0.40;0.40;;;26.10;52.60;;;;;;5025182;28;20049;-67
2021/08/08 02:12:51;;;;;;;0.60;0.60;;;26.10;52.60;;;;;;5025327;28;20461;-67
2021/08/08 02:15:19;;;;;;;0.57;0.57;;;26.10;52.60;;;;;;5024881;28;20054;-67
2021/08/08 02:17:46;;;;;;;0.82;0.60;;;26.10;52.60;;;;;;5024762;28;20064;-67
2021/08/08 02:20:15;;;;;;;0.47;0.47;;;26.10;52.60;;;;;;5024634;28;20084;-67
2021/08/08 02:22:43;;;;;;;0.60;0.60;;;26.10;52.60;;;;;;5020746;28;20546;-67
2021/08/08 02:25:11;;;;;;;0.80;0.80;;;26.10;52.60;;;;;;5005440;28;20543;-67
2021/08/08 02:27:40;;;;;;;0.70;0.70;;;26.10;52.70;;;;;;5008721;28;20056;-67
2021/08/08 02:30:09;;;;;;;0.63;0.63;;;26.10;52.60;;;;;;5008641;28;20050;-67
2021/08/08 02:32:37;;;;;;;0.60;0.60;;;26.10;52.60;;;;;;5007476;28;20135;-68
2021/08/08 02:35:04;;;;;;;1.10;0.52;;;26.10;52.70;;;;;;5008428;28;20754;-67
2021/08/08 02:37:31;;;;;;;0.65;0.65;;;26.10;52.60;;;;;;5008639;28;20089;-68
2021/08/08 02:39:58;;;;;;;0.65;0.65;;;26.10;52.70;;;;;;5009068;28;20058;-67
2021/08/08 02:42:25;;;;;;;0.57;0.57;;;26.10;52.70;;;;;;5028186;28;20553;-67
2021/08/08 02:44:53;;;;;;;0.82;0.70;;;26.10;52.70;;;;;;5028012;28;20137;-67
2021/08/08 02:47:20;;;;;;;0.50;0.50;;;26.10;52.70;;;;;;5028337;28;20132;-68
2021/08/08 02:49:47;;;;;;;0.60;0.60;;;26.10;52.70;;;;;;5027916;28;20417;-67
2021/08/08 02:52:14;;;;;;;0.73;0.73;;;26.10;52.70;;;;;;5028167;28;20053;-67
2021/08/08 02:54:44;;;;;;;0.52;0.52;;;26.10;52.70;;;;;;5027684;28;20050;-67
2021/08/08 02:57:11;;;;;;;0.60;0.60;;;26.10;52.70;;;;;;5028014;28;20076;-67
2021/08/08 02:59:38;;;;;;;0.50;0.50;;;26.10;52.70;;;;;;5027066;28;20152;-67
2021/08/08 03:02:06;;;;;;;0.75;0.75;;;26.10;52.70;;;;;;5027515;28;20140;-67
2021/08/08 03:04:34;;;;;;;0.60;0.60;;;26.10;52.60;;;;;;5027980;28;20413;-67
2021/08/08 03:07:01;;;;;;;0.52;0.52;;;26.10;52.60;;;;;;5027911;28;20049;-67
2021/08/08 03:09:28;;;;;;;0.60;0.60;;;26.10;52.70;;;;;;5027606;28;20589;-67
2021/08/08 03:11:55;;;;;;;0.57;0.57;;;26.10;52.60;;;;;;5027963;28;20948;-67
2021/08/08 03:14:23;;;;;;;0.60;0.60;;;26.10;52.60;;;;;;5027520;28;20056;-68
2021/08/08 03:16:51;;;;;;;0.50;0.50;;;26.10;52.60;;;;;;5027556;28;20064;-67
2021/08/08 03:19:19;;;;;;;0.50;0.50;;;26.10;52.60;;;;;;5027376;28;20132;-67
2021/08/08 03:21:46;;;;;;;0.50;0.50;;;26.10;52.60;;;;;;5026085;28;20069;-67
2021/08/08 03:24:13;;;;;;;0.60;0.60;;;26.10;53.10;;;;;;5026041;28;20099;-67
2021/08/08 03:26:41;;;;;;;0.60;0.60;;;26.10;52.60;;;;;;5026324;28;20060;-67
2021/08/08 03:29:09;;;;;;;0.52;0.52;;;26.10;52.60;;;;;;5027051;28;20140;-67
2021/08/08 03:31:37;;;;;;;0.63;0.63;;;26.20;52.70;;;;;;5027259;28;20063;-67
2021/08/08 03:34:04;;;;;;;0.82;0.60;;;26.10;52.60;;;;;;5027678;28;20137;-67
2021/08/08 03:36:32;;;;;;;0.60;0.60;;;26.10;52.60;;;;;;5027097;28;20059;-67
2021/08/08 03:38:59;;;;;;;0.50;0.50;;;26.10;52.60;;;;;;5026689;28;20060;-67
2021/08/08 03:41:26;;;;;;;0.57;0.57;;;26.10;52.60;;;;;;5026606;28;20144;-68
2021/08/08 03:43:53;;;;;;;0.73;0.73;;;26.10;52.70;;;;;;5026857;28;20081;-67
2021/08/08 03:46:20;;;;;;;0.70;0.70;;;26.10;52.60;;;;;;5027538;28;20060;-67
2021/08/08 03:48:47;;;;;;;0.77;0.77;;;26.10;52.70;;;;;;5026698;28;20501;-67
2021/08/08 03:51:15;;;;;;;0.40;0.40;;;26.10;52.70;;;;;;5027022;28;20137;-67
2021/08/08 03:53:42;;;;;;;0.55;0.55;;;26.10;52.70;;;;;;5026888;28;20548;-68
2021/08/08 03:56:09;;;;;;;0.60;0.60;;;26.10;52.70;;;;;;5026462;28;20413;-67
2021/08/08 03:58:36;;;;;;;0.40;0.40;;;26.10;52.70;;;;;;5027280;28;20053;-67
2021/08/08 04:01:04;;;;;;;0.60;0.60;;;26.10;52.70;;;;;;5025496;28;20542;-67
2021/08/08 04:03:34;;;;;;;0.70;0.70;;;26.10;52.70;;;;;;5026342;28;20136;-68
2021/08/08 04:06:01;;;;;;;0.50;0.50;;;26.10;52.60;;;;;;5026419;28;20049;-67
2021/08/08 04:08:29;;;;;;;0.52;0.52;;;26.10;52.60;;;;;;5026798;28;20128;-67
2021/08/08 04:10:56;;;;;;;0.82;0.82;;;26.10;52.60;;;;;;5026206;28;20140;-67
2021/08/08 04:13:23;;;;;;;0.43;0.43;;;26.10;52.60;;;;;;5026514;28;20050;-67
2021/08/08 04:15:50;;;;;;;0.60;0.60;;;26.10;52.60;;;;;;5026256;28;20059;-67
2021/08/08 04:18:17;;;;;;;0.40;0.40;;;26.20;52.60;;;;;;5026741;28;20135;-67
2021/08/08 04:20:44;;;;;;;0.70;0.70;;;26.20;52.60;;;;;;5026436;28;20081;-68
2021/08/08 04:23:11;;;;;;;0.60;0.60;;;26.10;52.60;;;;;;5010533;28;20064;-67
2021/08/08 04:25:39;;;;;;;0.60;0.60;;;26.20;52.60;;;;;;5006327;28;20053;-68
2021/08/08 04:28:07;;;;;;;0.90;0.60;;;26.20;52.60;;;;;;5006676;28;20153;-67
2021/08/08 04:30:35;;;;;;;0.55;0.55;;;26.20;52.60;;;;;;5006012;28;20117;-67
2021/08/08 04:33:03;;;;;;;0.73;0.73;;;26.20;52.50;;;;;;5006650;28;20499;-67
2021/08/08 04:35:32;;;;;;;0.43;0.43;;;26.20;52.50;;;;;;5006514;28;20133;-67
2021/08/08 04:38:00;;;;;;;0.65;0.65;;;26.30;52.50;;;;;;5006281;28;20123;-67
2021/08/08 04:40:28;;;;;;;0.63;0.63;;;26.30;52.50;;;;;;5013413;28;20092;-67
2021/08/08 04:42:55;;;;;;;0.57;0.57;;;26.30;52.40;;;;;;5026281;28;20409;-68
2021/08/08 04:45:23;;;;;;;0.65;0.65;;;26.30;52.40;;;;;;5026007;28;20057;-67
2021/08/08 04:47:51;;;;;;;0.40;0.40;;;26.30;52.30;;;;;;5026302;28;20060;-67
2021/08/08 04:50:20;;;;;;;0.60;0.40;;;26.30;52.20;;;;;;5025398;28;20057;-67
2021/08/08 04:52:50;;;;;;;0.60;0.60;;;26.40;52.20;;;;;;5025809;28;20136;-67
2021/08/08 04:55:18;;;;;;;0.65;0.65;;;26.40;52.10;;;;;;5025567;28;20564;-67
2021/08/08 04:57:45;;;;;;;0.45;0.45;;;26.40;52.10;;;;;;5025960;28;20478;-68
2021/08/08 05:00:13;;;;;;;0.80;0.80;;;26.40;52.00;;;;;;5025372;28;20049;-67
2021/08/08 05:02:48;;;;;;;0.52;0.52;;;26.40;51.90;;;;;;5025798;28;20049;-67
2021/08/08 05:05:16;;;;;;;0.50;0.50;;;26.50;51.90;;;;;;5025891;28;20053;-67
2021/08/08 05:07:47;;;;;;;0.50;0.50;;;26.50;51.80;;;;;;5024545;28;20049;-68
2021/08/08 05:10:18;;;;;;;0.57;0.57;;;26.50;51.80;;;;;;5025572;28;20581;-67
2021/08/08 05:12:45;;;;;;;0.40;0.40;;;26.50;52.00;;;;;;5025866;28;20046;-67
2021/08/08 05:15:12;;;;;;;0.50;0.50;;;26.40;52.10;;;;;;5025858;28;20137;-67
2021/08/08 05:17:40;;;;;;;0.65;0.65;;;26.40;52.20;;;;;;5025483;28;20057;-70
2021/08/08 05:20:07;;;;;;;0.80;0.80;;;26.30;52.40;;;;;;5024764;28;20128;-67
2021/08/08 05:22:35;;;;;;;1.08;1.00;;;26.20;52.60;;;;;;5015123;28;20058;-67
2021/08/08 05:25:03;;;;;;;0.77;0.77;;;26.10;52.90;;;;;;5005609;28;20561;-67
2021/08/08 05:27:33;;;;;;;0.70;0.70;;;26.00;53.20;;;;;;5005578;28;20053;-67
2021/08/08 05:30:01;;;;;;;;;;;25.90;53.50;;;;;;5006310;28;20132;-67
2021/08/08 05:32:28;;;;;;;0.82;0.82;;;25.70;53.60;;;;;;5005276;28;19972;-67
2021/08/08 05:34:55;;;;;;;1.05;0.95;;;25.60;53.80;;;;;;5005636;28;20092;-67
2021/08/08 05:37:22;;;;;;;0.70;0.70;;;25.50;54.40;;;;;;5004362;28;20189;-67
2021/08/08 05:39:49;;;;;;;0.90;0.90;;;25.30;54.00;;;;;;5005440;28;20409;-68
2021/08/08 05:42:17;;;;;;;0.82;0.82;;;25.20;54.10;;;;;;5020257;28;20077;-67
2021/08/08 05:44:45;;;;;;;0.95;0.95;;;25.10;54.40;;;;;;5025373;28;20750;-67
2021/08/08 05:47:12;;;;;;;0.90;0.90;;;24.90;54.50;;;;;;5023781;28;20061;-67
2021/08/08 05:49:39;;;;;;;0.77;0.77;;;24.80;55.30;;;;;;5016138;28;20080;-67
2021/08/08 05:52:07;;;;;;;0.88;0.88;;;24.70;55.60;;;;;;5005539;28;20049;-67
2021/08/08 05:54:34;;;;;;;0.90;0.90;;;24.60;55.30;;;;;;5021000;28;20053;-68
2021/08/08 05:57:01;;;;;;;1.40;1.30;;;24.50;55.60;;;;;;5025372;28;20432;-68
2021/08/08 05:59:28;;;;;;;0.80;0.80;;;24.40;55.80;;;;;;5025074;28;20052;-67
2021/08/08 06:01:55;;;;;;;1.10;1.00;;;24.40;56.00;;;;;;5028512;28;20079;-68
2021/08/08 06:04:22;;;;;;;1.00;1.00;;;24.30;56.30;;;;;;5028987;28;20084;-68
2021/08/08 06:06:50;;;;;;;1.08;1.02;;;24.30;56.50;;;;;;5012521;28;20089;-68
2021/08/08 06:09:17;;;;;;;1.45;1.35;;;24.30;56.60;;;;;;5009285;28;20509;-68
2021/08/08 06:11:44;;;;;;;1.10;1.10;;;24.20;56.70;;;;;;5009010;28;20111;-67
2021/08/08 06:14:11;;;;;;;1.20;1.20;;;24.10;56.80;;;;;;5009184;28;20419;-68
2021/08/08 06:16:39;;;;;;;1.35;1.25;;;24.10;56.90;;;;;;5008826;28;20053;-68
2021/08/08 06:19:06;;;;;;;1.00;1.00;;;24.10;57.00;;;;;;5009077;28;20046;-68
2021/08/08 06:21:33;;;;;;;0.95;0.95;;;24.10;57.10;;;;;;5008800;28;20081;-68
2021/08/08 06:24:01;;;;;;;1.02;1.02;;;24.10;57.10;;;;;;5008873;28;20061;-68
2021/08/08 06:26:28;;;;;;;0.98;0.98;;;24.00;57.10;;;;;;5008638;28;20132;-68
2021/08/08 06:28:56;;;;;;;1.17;1.15;;;24.00;57.20;;;;;;5008908;28;20569;-68
2021/08/08 06:31:23;;;;;;;0.90;0.90;;;24.00;57.20;;;;;;5008497;28;20509;-68
2021/08/08 06:33:51;;;;;;;0.73;0.73;;;23.90;57.30;;;;;;5008402;28;20061;-68
2021/08/08 06:36:18;;;;;;;1.25;1.25;;;23.90;57.30;;;;;;5024523;28;20088;-68
2021/08/08 06:38:45;;;;;;;1.35;1.27;;;23.90;57.40;;;;;;5027983;28;20060;-69
2021/08/08 06:41:12;;;;;;;1.70;0.90;;;23.90;57.40;;;;;;5028365;28;20136;-68
2021/08/08 06:43:39;;;;;;;0.80;0.80;;;23.90;57.50;;;;;;5026957;28;20161;-67
2021/08/08 06:46:07;;;;;;;1.27;1.10;;;23.90;57.50;;;;;;5028142;28;20134;-68
2021/08/08 06:48:35;;;;;;;0.93;0.93;;;23.90;57.50;;;;;;5028037;28;20524;-68
2021/08/08 06:51:02;;;;;;;0.95;0.95;;;23.90;57.50;;;;;;5028084;28;20045;-68
2021/08/08 06:53:30;;;;;;;0.80;0.80;;;23.90;57.50;;;;;;5027831;28;20561;-67
2021/08/08 06:55:59;;;;;;;0.98;0.98;;;23.80;57.50;;;;;;5027218;28;20581;-69
2021/08/08 06:58:26;;;;;;;0.90;0.90;;;23.80;57.60;;;;;;5028334;28;20083;-68
2021/08/08 07:00:54;;;;;;;1.05;1.05;;;23.80;57.60;;;;;;5026779;28;20557;-67
2021/08/08 07:03:21;;;;;;;1.00;0.93;;;23.80;57.60;;;;;;5027582;28;20108;-67
2021/08/08 07:05:48;;;;;;;1.02;0.90;;;23.90;57.60;;;;;;5028260;28;20050;-67
2021/08/08 07:08:15;;;;;;;0.90;0.90;;;23.80;57.60;;;;;;5026424;28;20111;-68
2021/08/08 07:10:43;;;;;;;1.13;0.93;;;23.80;57.60;;;;;;5028101;28;20137;-67
2021/08/08 07:13:10;;;;;;;1.23;1.13;;;23.80;57.60;;;;;;5026668;28;20053;-67
2021/08/08 07:15:37;;;;;;;0.75;0.75;;;23.80;57.60;;;;;;5027128;28;20045;-67
2021/08/08 07:18:04;;;;;;;0.80;0.80;;;23.80;57.70;;;;;;5027460;28;20103;-68
2021/08/08 07:20:32;;;;;;;1.30;1.20;;;23.80;57.60;;;;;;5026528;28;20049;-67
2021/08/08 07:23:00;;;;;;;0.80;0.80;;;23.80;57.70;;;;;;5027808;28;20081;-67
2021/08/08 07:25:27;;;;;;;0.95;0.95;;;23.80;57.70;;;;;;5027568;28;20417;-67
2021/08/08 07:27:54;;;;;;;0.80;0.80;;;23.80;57.70;;;;;;5026694;28;20124;-67
2021/08/08 07:30:21;;;;;;;0.80;0.80;;;23.80;57.70;;;;;;5027432;28;20107;-68
2021/08/08 07:32:49;;;;;;;0.63;0.63;;;23.80;57.70;;;;;;5026308;28;20089;-68
2021/08/08 07:35:17;;;;;;;0.57;0.57;;;23.80;57.70;;;;;;5027299;28;20053;-67
2021/08/08 07:37:44;;;;;;;0.90;0.90;;;23.80;57.70;;;;;;5027415;28;20081;-67
2021/08/08 07:40:11;;;;;;;0.63;0.60;;;23.80;57.70;;;;;;5026227;28;20045;-68
2021/08/08 07:42:38;;;;;;;0.43;0.43;;;23.80;57.70;;;;;;5027314;28;20053;-67
2021/08/08 07:45:06;;;;;;;0.63;0.63;;;23.80;57.70;;;;;;5027476;28;20072;-67
2021/08/08 07:47:33;;;;;;;0.68;0.68;;;23.80;57.70;;;;;;5025989;28;20092;-67
2021/08/08 07:50:00;;;;;;;0.68;0.68;;;23.80;57.70;;;;;;5026798;28;20049;-67
2021/08/08 07:52:27;;;;;;;0.60;0.60;;;23.80;57.70;;;;;;5026162;28;20142;-68
2021/08/08 07:54:56;;;;;;;0.68;0.68;;;23.80;57.70;;;;;;5026764;28;20045;-68
2021/08/08 07:57:23;;;;;;;1.00;0.80;;;23.80;57.70;;;;;;5026531;28;20157;-67
2021/08/08 07:59:51;;;;;;;0.90;0.90;;;23.80;57.60;;;;;;5026007;28;20502;-67
2021/08/08 08:02:18;;;;;;;0.50;0.50;;;23.80;57.60;;;;;;5025705;28;20086;-68
2021/08/08 08:04:46;;;;;;;0.70;0.70;;;23.80;57.60;;;;;;5022213;28;20128;-67
2021/08/08 08:07:13;;;;;;;0.50;0.50;;;23.80;57.50;;;;;;5026337;28;20053;-68
2021/08/08 08:09:40;;;;;;;0.85;0.60;;;23.80;57.50;;;;;;5025797;28;20383;-67
2021/08/08 08:12:08;;;;;;;1.85;0.50;;;23.80;57.50;;;;;;5025357;28;20080;-69
2021/08/08 08:14:37;;;;;;;0.75;0.75;;;23.80;57.40;;;;;;5026417;28;20057;-68
2021/08/08 08:17:04;;;;;;;0.60;0.60;;;23.80;57.40;;;;;;5026849;28;20045;-68
2021/08/08 08:19:31;;;;;;;0.55;0.55;;;23.80;57.40;;;;;;5024499;28;20060;-67
2021/08/08 08:21:58;;;;;;;0.60;0.60;;;23.80;57.40;;;;;;5026270;28;20059;-67
2021/08/08 08:24:25;;;;;;;0.50;0.50;;;23.80;57.40;;;;;;5025349;28;20513;-68
2021/08/08 08:26:52;;;;;;;0.57;0.57;;;23.80;57.50;;;;;;5026208;28;20132;-68
2021/08/08 08:29:20;;;;;;;0.90;0.80;;;23.80;57.40;;;;;;5025926;28;20060;-68
2021/08/08 08:31:47;;;;;;;1.02;1.02;;;23.90;57.50;;;;;;5026137;28;20049;-67
2021/08/08 08:34:15;;;;;;;0.50;0.50;;;23.80;57.40;;;;;;5026987;28;20585;-68
2021/08/08 08:36:43;;;;;;;0.60;0.60;;;23.90;57.40;;;;;;5025537;28;20524;-68
2021/08/08 08:39:10;;;;;;;0.57;0.50;;;23.90;57.40;;;;;;5026240;28;20100;-68
2021/08/08 08:41:38;;;;;;;0.60;0.60;;;23.90;57.40;;;;;;5022238;28;20513;-67
2021/08/08 08:44:05;;;;;;;0.47;0.47;;;23.90;57.40;;;;;;5005256;28;20489;-67
2021/08/08 08:46:34;;;;;;;0.50;0.50;;;23.90;57.40;;;;;;5006219;28;20085;-68
2021/08/08 08:49:02;;;;;;;0.40;0.40;;;23.90;57.50;;;;;;5006006;28;20111;-68
2021/08/08 08:51:39;;;;;;;0.75;0.50;;;23.90;57.40;;;;;;5019513;28;20498;-68
2021/08/08 08:54:07;;;;;;;0.50;0.50;;;23.90;57.40;;;;;;5025748;28;20049;-67
2021/08/08 08:56:34;;;;;;;0.55;0.50;;;23.90;57.40;;;;;;5024810;28;20053;-68
2021/08/08 08:59:01;;;;;;;0.65;0.65;;;23.90;57.40;;;;;;5025735;28;20171;-68
2021/08/08 09:01:28;;;;;;;1.48;0.45;;;23.90;57.40;;;;;;5025764;28;20087;-67
2021/08/08 09:03:56;;;;;;;0.50;0.50;;;23.90;57.40;;;;;;5025134;28;20107;-67
2021/08/08 09:06:23;;;;;;;0.65;0.65;;;23.90;57.40;;;;;;5025811;28;20057;-68
2021/08/08 09:08:51;;;;;;;0.57;0.57;;;23.90;57.40;;;;;;5024656;28;20053;-68
2021/08/08 09:11:18;;;;;;;1.17;0.47;;;23.90;57.50;;;;;;5025510;28;20068;-68
2021/08/08 09:13:52;;;;;;;0.40;0.40;;;23.90;57.50;;;;;;5025650;28;20490;-68
2021/08/08 09:16:21;;;;;;;0.30;0.30;;;23.90;57.50;;;;;;5022062;28;20053;-69
2021/08/08 09:18:51;;;;;;;0.50;0.40;;;23.90;57.60;;;;;;5025964;28;20053;-68
2021/08/08 09:21:19;;;;;;;0.50;0.50;;;23.90;57.60;;;;;;5022206;28;20059;-68
2021/08/08 09:24:00;;;;;;;0.50;0.50;;;23.90;57.60;;;;;;5025132;28;20508;-68
2021/08/08 09:26:36;;;;;;;0.68;0.52;;;23.90;57.60;;;;;;5025561;28;20045;-68
2021/08/08 09:29:07;;;;;;;0.40;0.40;;;23.90;57.60;;;;;;5022245;28;20052;-68
2021/08/08 09:31:47;;;;;;;0.40;0.40;;;23.90;57.70;;;;;;5038643;28;20132;-68
2021/08/08 09:34:33;;;;;;;;;;;23.90;57.60;;;;;;5021309;28;20053;-67
2021/08/08 09:37:06;;;;;;;0.52;0.52;;;23.90;57.60;;;;;;5027819;28;19960;-68
2021/08/08 09:39:46;;;;;;;0.40;0.40;;;23.90;57.50;;;;;;5029366;28;20064;-67
2021/08/08 09:42:21;;;;;;;0.40;0.40;;;23.90;57.50;;;;;;5026446;28;20057;-68
2021/08/08 09:45:03;;;;;;;0.52;0.52;;;24.00;57.50;;;;;;5028883;28;20056;-68
2021/08/08 09:47:39;;;;;;;0.40;0.40;;;24.00;57.50;;;;;;5026451;28;20057;-68
2021/08/08 09:50:10;;;;;;;0.28;0.28;;;24.00;57.50;;;;;;5021844;28;20045;-68
2021/08/08 09:52:39;;;;;;;0.55;0.40;;;24.00;57.40;;;;;;5027866;28;20497;-68
2021/08/08 09:55:23;;;;;;;0.40;0.40;;;24.00;57.40;;;;;;5028250;28;20060;-68
2021/08/08 09:57:51;;;;;;;0.50;0.50;;;24.10;57.40;;;;;;5028692;28;20903;-68
2021/08/08 10:00:24;;;;;;;0.47;0.47;;;24.10;57.40;;;;;;5023461;28;20046;-68
2021/08/08 10:02:52;;;;;;;0.40;0.40;;;24.10;57.40;;;;;;5024339;28;20140;-68
2021/08/08 10:05:20;;;;;;;0.38;0.38;;;24.00;57.40;;;;;;5008988;28;20050;-68
2021/08/08 10:07:49;;;;;;;0.25;0.25;;;24.10;57.40;;;;;;5026845;28;20108;-68
2021/08/08 10:10:18;;;;;;;0.35;0.35;;;24.10;57.30;;;;;;5028718;28;20060;-68
2021/08/08 10:13:16;;;;;;;0.50;0.50;;;24.10;57.30;;;;;;5028006;28;20557;-68
2021/08/08 10:15:45;;;;;;;1.02;0.52;;;24.10;57.30;;;;;;5028667;28;20053;-68
2021/08/08 10:18:15;;;;;;;0.43;0.43;;;24.10;57.30;;;;;;5028603;28;20152;-68
2021/08/08 10:20:43;;;;;;;0.35;0.35;;;24.10;57.30;;;;;;5028593;28;20057;-68
2021/08/08 10:23:15;;;;;;;0.40;0.40;;;24.10;57.30;;;;;;5028792;28;20164;-68
2021/08/08 10:25:47;;;;;;;0.40;0.40;;;24.10;57.20;;;;;;5024879;28;20489;-68
2021/08/08 10:28:15;;;;;;;0.43;0.40;;;24.10;57.20;;;;;;5028591;28;20057;-68
2021/08/08 10:30:45;;;;;;;0.47;0.47;;;24.10;57.10;;;;;;5026037;28;20136;-68
2021/08/08 10:33:13;;;;;;;0.38;0.38;;;24.10;57.10;;;;;;5025167;28;20513;-68
2021/08/08 10:35:44;;;;;;;0.50;0.50;;;24.10;57.10;;;;;;5027844;28;20057;-68
2021/08/08 10:38:12;;;;;;;0.35;0.35;;;24.10;57.10;;;;;;5026140;28;20145;-68
2021/08/08 10:40:41;;;;;;;0.70;0.70;;;24.10;57.20;;;;;;5026329;28;20077;-68
2021/08/08 10:43:20;;;;;;;0.30;0.30;;;24.10;57.20;;;;;;5028492;28;20136;-67
2021/08/08 10:45:47;;;;;;;0.45;0.45;;;24.10;57.10;;;;;;5024119;28;20049;-67
2021/08/08 10:48:14;;;;;;;0.30;0.30;;;24.10;57.10;;;;;;5026715;28;20057;-67
2021/08/08 10:50:44;;;;;;;0.50;0.50;;;24.10;57.20;;;;;;5026082;28;20128;-68
2021/08/08 10:53:27;;;;;;;0.60;0.60;;;24.10;57.10;;;;;;5026679;28;20500;-67
2021/08/08 10:56:12;;;;;;;0.40;0.40;;;24.10;57.10;;;;;;5027261;28;20133;-67
2021/08/08 10:58:41;;;;;;;0.50;0.50;;;24.10;57.10;;;;;;5024731;28;20049;-68
2021/08/08 11:01:19;;;;;;;2.22;0.80;;;24.10;57.20;;;;;;5026746;28;20600;-68
2021/08/08 11:03:59;;;;;;;0.57;0.57;;;24.10;57.10;;;;;;5025024;28;20041;-67
2021/08/08 11:06:28;;;;;;;2.10;0.50;;;24.10;57.10;;;;;;5026560;28;20050;-67
2021/08/08 11:08:58;;;;;;;0.60;0.60;;;24.10;57.20;;;;;;5027418;28;20136;-68
2021/08/08 11:11:29;;;;;;;;;;;24.10;57.20;;;;;;5027979;28;20053;-68
2021/08/08 11:14:17;;;;;;;1.20;0.40;;;24.10;57.20;;;;;;5027958;28;19924;-67
2021/08/08 11:16:58;;;;;;;0.50;0.50;;;24.10;57.10;;;;;;5027750;28;20457;-68
2021/08/08 11:19:38;;;;;;;0.50;0.45;;;24.20;57.10;;;;;;5027908;28;20063;-68
2021/08/08 11:22:14;;;;;;;0.60;0.60;;;24.20;57.10;;;;;;5027480;28;20045;-67
2021/08/08 11:24:44;;;;;;;0.40;0.40;;;24.20;57.10;;;;;;5027477;28;20915;-68
2021/08/08 11:27:12;;;;;;;0.30;0.30;;;24.20;57.00;;;;;;5027512;28;20061;-68
2021/08/08 11:29:39;;;;;;;0.60;0.40;;;24.20;57.00;;;;;;5027728;28;20056;-68
2021/08/08 11:32:08;;;;;;;1.27;0.43;;;24.20;56.90;;;;;;5027397;28;20067;-67
2021/08/08 11:34:35;;;;;;;0.43;0.43;;;24.30;57.00;;;;;;5026957;28;20135;-68
2021/08/08 11:37:02;;;;;;;0.38;0.38;;;24.20;56.90;;;;;;5027205;28;20064;-68
2021/08/08 11:39:35;;;;;;;0.60;0.60;;;24.30;56.90;;;;;;5027330;28;20140;-67
2021/08/08 11:42:05;;;;;;;0.55;0.55;;;24.30;57.00;;;;;;5027199;28;20136;-68
2021/08/08 11:44:40;;;;;;;0.85;0.85;;;24.30;57.00;;;;;;5027387;28;20512;-67
2021/08/08 11:47:09;;;;;;;0.65;0.60;;;24.30;57.00;;;;;;5027137;28;20053;-68
2021/08/08 11:49:45;;;;;;;0.30;0.30;;;24.30;57.00;;;;;;5027440;28;20128;-67
2021/08/08 11:52:16;;;;;;;0.47;0.47;;;24.30;57.10;;;;;;5026832;28;20698;-68
2021/08/08 11:54:58;;;;;;;0.68;0.68;;;24.30;57.10;;;;;;5027062;28;20248;-70
2021/08/08 11:57:27;;;;;;;0.73;0.73;;;24.30;57.10;;;;;;5026435;28;20128;-68
2021/08/08 11:59:55;;;;;;;2.73;0.70;;;24.30;57.10;;;;;;5026636;28;20057;-68
2021/08/08 12:02:24;;;;;;;0.40;0.40;;;24.30;57.20;;;;;;5026532;28;20137;-67
2021/08/08 12:04:53;;;;;;;0.50;0.50;;;24.30;57.20;;;;;;5026789;28;20089;-68
2021/08/08 12:07:28;;;;;;;0.63;0.63;;;24.30;57.30;;;;;;5026595;28;20053;-68
2021/08/08 12:09:56;;;;;;;0.50;0.50;;;24.30;57.30;;;;;;5026543;28;20569;-68
2021/08/08 12:12:37;;;;;;;0.50;0.45;;;24.30;57.30;;;;;;5026379;28;20052;-68
2021/08/08 12:15:06;;;;;;;0.57;0.57;;;24.30;57.30;;;;;;5026504;28;20160;-68
2021/08/08 12:17:33;;;;;;;0.70;0.70;;;24.30;57.30;;;;;;5026729;28;20092;-68
2021/08/08 12:20:09;;;;;;;0.73;0.73;;;24.30;57.30;;;;;;5019175;28;20057;-68
2021/08/08 12:22:37;;;;;;;0.50;0.50;;;24.30;57.30;;;;;;5006058;28;20487;-68
2021/08/08 12:25:18;;;;;;;0.50;0.50;;;24.30;57.30;;;;;;5006948;28;20080;-68
2021/08/08 12:27:46;;;;;;;1.00;0.70;;;24.30;57.30;;;;;;5006611;28;20054;-68
2021/08/08 12:30:15;;;;;;;2.17;0.85;;;24.30;57.20;;;;;;5007050;28;20128;-67
2021/08/08 12:32:43;;;;;;;0.50;0.50;;;24.30;57.30;;;;;;5006358;28;20511;-68
2021/08/08 12:35:14;;;;;;;0.60;0.60;;;24.30;57.20;;;;;;5007119;28;20049;-68
2021/08/08 12:37:43;;;;;;;0.38;0.38;;;24.30;57.30;;;;;;5006659;28;20054;-68
2021/08/08 12:40:17;;;;;;;0.60;0.60;;;24.30;57.20;;;;;;5006261;28;20050;-67
2021/08/08 12:42:45;;;;;;;0.45;0.45;;;24.30;57.20;;;;;;5006586;28;20050;-68
2021/08/08 12:45:17;;;;;;;0.63;0.63;;;24.40;57.30;;;;;;5006066;28;20510;-68
2021/08/08 12:47:57;;;;;;;0.57;0.57;;;24.30;57.30;;;;;;5006142;28;20073;-68
2021/08/08 12:50:24;;;;;;;0.50;0.50;;;24.40;57.30;;;;;;5006213;28;20540;-67
2021/08/08 12:52:52;;;;;;;0.80;0.52;;;24.40;57.30;;;;;;5006234;28;20475;-67
2021/08/08 12:55:20;;;;;;;0.57;0.57;;;24.40;57.30;;;;;;5006262;28;20049;-68
2021/08/08 12:57:49;;;;;;;0.70;0.70;;;24.40;57.30;;;;;;5005914;28;20050;-67